There are multiple Weather-warnings   Click here for more information


Meteo18 Weather Cam more information Meteo18 Weather Cam


Thunder radar more information blitzortung!


warning for Snow/Ice more information rain snow radar


Visit our other weather sites:

Template documentation
and downloads

And another site



Weather Underground History page Text

Daily Summary for October 22, 2017 Units:  English    Metric   Both
« Previous Day
Next Day »
Daily Weekly Monthly Yearly Custom
  High: Low: Average:
Temperature: TemperatureC °F 7.6 °F 9.7 °F
Dew Point: DewpointC °F 5.3 °F 6.8 °F
Humidity: Humidity % 61 % 82 %
Wind Speed: WindSpeedKMH mph 0.0 mph 9.8 mph
Wind Gust: WindSpeedGustKMH mph - -
Wind:- - WSW
Pressure: PressurehPa in 1021.2 in -
Precipitation: 0.5 in    
Historical Graphs
 
 
Tabular Data for October 22, 2017
Time Temperature Dew Point Pressure Wind Wind Speed Wind Gust Humidity Rainfall Rate (Hourly)
TemperatureC °F DewpointC °F PressurehPa in Calm     Humidity % HourlyPrecipMM in
00:02 10.2 °F 7.6 °F 1021.2 in SW 14.5 mph 24.1 mph 84 % 0.0 in
00:12 10.2 °F 7.6 °F 1021.2 in WSW 8.0 mph 22.5 mph 84 % 0.0 in
00:17 10.2 °F 7.6 °F 1021.6 in WSW 8.0 mph 22.5 mph 84 % 0.0 in
00:22 10.2 °F 7.6 °F 1021.6 in SSW 14.5 mph 22.5 mph 84 % 0.0 in
00:27 10.1 °F 7.5 °F 1021.6 in SW 9.7 mph 22.5 mph 84 % 0.0 in
00:32 10.1 °F 7.5 °F 1021.6 in SW 9.7 mph 20.9 mph 84 % 0.0 in
00:37 10.0 °F 7.4 °F 1021.6 in WSW 14.5 mph 20.9 mph 84 % 0.0 in
00:42 9.9 °F 7.5 °F 1021.6 in WSW 19.3 mph 22.5 mph 85 % 0.0 in
00:47 9.9 °F 7.5 °F 1021.6 in SSW 4.8 mph 22.5 mph 85 % 0.0 in
00:52 9.9 °F 7.5 °F 1021.6 in SW 9.7 mph 22.5 mph 85 % 0.0 in
00:57 9.8 °F 7.4 °F 1021.6 in SW 14.5 mph 22.5 mph 85 % 0.0 in
01:02 9.8 °F 7.4 °F 1021.6 in SW 9.7 mph 22.5 mph 85 % 0.0 in
01:12 9.6 °F 7.4 °F 1021.6 in SW 16.1 mph 19.3 mph 86 % 0.0 in
01:17 9.5 °F 7.3 °F 1021.6 in SW 16.1 mph 20.9 mph 86 % 0.0 in
01:22 9.4 °F 7.3 °F 1021.6 in WSW 9.7 mph 20.9 mph 87 % 0.0 in
01:32 9.3 °F 7.2 °F 1021.6 in South 9.7 mph 20.9 mph 87 % 0.0 in
01:37 9.3 °F 7.4 °F 1021.9 in SW 11.3 mph 20.9 mph 88 % 0.0 in
01:42 9.3 °F 7.4 °F 1021.9 in SSW 9.7 mph 20.9 mph 88 % 0.0 in
01:47 9.2 °F 7.3 °F 1021.9 in WSW 6.4 mph 19.3 mph 88 % 0.0 in
01:52 9.2 °F 7.3 °F 1021.9 in SW 12.9 mph 19.3 mph 88 % 0.0 in
02:02 9.1 °F 7.2 °F 1021.9 in WSW 16.1 mph 19.3 mph 88 % 0.0 in
02:07 9.1 °F 7.2 °F 1021.9 in WSW 4.8 mph 19.3 mph 88 % 0.0 in
02:12 9.0 °F 7.1 °F 1021.9 in SW 8.0 mph 19.3 mph 88 % 0.0 in
02:17 8.8 °F 7.1 °F 1021.9 in WSW 9.7 mph 19.3 mph 89 % 0.0 in
02:22 8.8 °F 7.1 °F 1021.6 in SW 8.0 mph 17.7 mph 89 % 0.0 in
02:32 8.7 °F 7.0 °F 1021.9 in SW 9.7 mph 17.7 mph 89 % 0.0 in
02:42 8.7 °F 7.0 °F 1021.9 in SW 4.8 mph 16.1 mph 89 % 0.0 in
02:52 8.7 °F 7.0 °F 1021.9 in WSW 12.9 mph 16.1 mph 89 % 0.0 in
02:57 8.7 °F 7.0 °F 1021.9 in WSW 4.8 mph 22.5 mph 89 % 0.0 in
03:02 8.6 °F 6.9 °F 1021.9 in SW 12.9 mph 22.5 mph 89 % 0.0 in
03:12 8.6 °F 6.9 °F 1021.9 in SSW 4.8 mph 20.9 mph 89 % 0.0 in
03:17 8.5 °F 6.8 °F 1021.9 in WSW 8.0 mph 20.9 mph 89 % 0.0 in
03:22 8.5 °F 6.8 °F 1021.9 in SW 6.4 mph 20.9 mph 89 % 0.0 in
03:32 8.4 °F 6.7 °F 1021.9 in SW 11.3 mph 14.5 mph 89 % 0.0 in
03:42 8.1 °F 6.6 °F 1021.9 in SW 8.0 mph 12.9 mph 90 % 0.0 in
03:52 7.8 °F 6.3 °F 1021.9 in SSW 4.8 mph 11.3 mph 90 % 0.0 in
04:02 7.8 °F 6.4 °F 1021.6 in SW 4.8 mph 12.9 mph 91 % 0.0 in
04:12 7.8 °F 6.4 °F 1021.6 in SSW 4.8 mph 17.7 mph 91 % 0.0 in
04:17 7.7 °F 6.3 °F 1021.6 in SW 4.8 mph 17.7 mph 91 % 0.0 in
04:32 7.7 °F 6.3 °F 1021.6 in SW 4.8 mph 17.7 mph 91 % 0.0 in
04:37 7.8 °F 6.6 °F 1021.6 in SW 12.9 mph 14.5 mph 92 % 0.0 in
04:42 7.9 °F 6.5 °F 1021.6 in WSW 8.0 mph 14.5 mph 91 % 0.0 in
04:52 8.0 °F 6.6 °F 1021.6 in SW 6.4 mph 14.5 mph 91 % 0.0 in
05:02 8.0 °F 6.6 °F 1021.6 in SW 8.0 mph 12.9 mph 91 % 0.0 in
05:07 8.0 °F 6.6 °F 1021.6 in SW 12.9 mph 14.5 mph 91 % 0.0 in
05:22 7.9 °F 6.5 °F 1021.6 in SW 9.7 mph 14.5 mph 91 % 0.0 in
05:32 7.9 °F 6.5 °F 1021.6 in WSW 6.4 mph 11.3 mph 91 % 0.0 in
05:37 7.9 °F 6.5 °F 1021.6 in WSW 6.4 mph 16.1 mph 91 % 0.0 in
05:42 7.9 °F 6.5 °F 1021.6 in SW 9.7 mph 16.1 mph 91 % 0.0 in
05:47 7.9 °F 6.5 °F 1021.6 in SSW 3.2 mph 17.7 mph 91 % 0.0 in
05:52 7.9 °F 6.5 °F 1021.6 in SW 11.3 mph 17.7 mph 91 % 0.0 in
05:57 7.9 °F 6.5 °F 1021.6 in SW 9.7 mph 17.7 mph 91 % 0.0 in
06:02 7.9 °F 6.5 °F 1021.6 in WSW 4.8 mph 17.7 mph 91 % 0.0 in
06:12 7.8 °F 6.4 °F 1021.6 in SW 12.9 mph 16.1 mph 91 % 0.0 in
06:17 7.8 °F 6.4 °F 1021.6 in SSW 14.5 mph 16.1 mph 91 % 0.0 in
06:22 7.8 °F 6.4 °F 1021.9 in WSW 8.0 mph 16.1 mph 91 % 0.0 in
06:32 7.7 °F 6.5 °F 1021.6 in SW 4.8 mph 16.1 mph 92 % 0.0 in
06:42 7.7 °F 6.5 °F 1021.6 in SW 11.3 mph 16.1 mph 92 % 0.0 in
06:47 7.7 °F 6.5 °F 1021.6 in SW 11.3 mph 17.7 mph 92 % 0.0 in
06:52 7.7 °F 6.5 °F 1021.6 in SW 11.3 mph 17.7 mph 92 % 0.0 in
07:02 7.8 °F 6.4 °F 1021.6 in West 8.0 mph 19.3 mph 91 % 0.0 in
07:12 7.9 °F 6.5 °F 1021.9 in WSW 9.7 mph 19.3 mph 91 % 0.0 in
07:17 7.9 °F 6.5 °F 1021.9 in SW 12.9 mph 19.3 mph 91 % 0.0 in
07:22 8.0 °F 6.6 °F 1021.9 in SW 8.0 mph 19.3 mph 91 % 0.0 in
07:32 8.0 °F 6.6 °F 1021.6 in West 9.7 mph 19.3 mph 91 % 0.0 in
07:42 7.9 °F 6.4 °F 1021.9 in West 9.7 mph 19.3 mph 90 % 0.0 in
07:47 7.9 °F 6.4 °F 1021.9 in SW 9.7 mph 24.1 mph 90 % 0.0 in
07:52 7.9 °F 6.4 °F 1021.9 in WSW 4.8 mph 24.1 mph 90 % 0.0 in
08:02 7.8 °F 6.3 °F 1021.9 in SW 12.9 mph 24.1 mph 90 % 0.0 in
08:12 7.8 °F 6.3 °F 1021.9 in WSW 12.9 mph 25.7 mph 90 % 0.0 in
08:17 7.7 °F 6.2 °F 1021.9 in SW 11.3 mph 25.7 mph 90 % 0.0 in
08:22 7.7 °F 6.3 °F 1021.9 in WSW 9.7 mph 25.7 mph 91 % 0.0 in
08:32 7.6 °F 6.2 °F 1022.2 in WSW 11.3 mph 20.9 mph 91 % 0.0 in
08:42 7.6 °F 6.2 °F 1022.2 in West 9.7 mph 20.9 mph 91 % 0.0 in
08:52 7.6 °F 6.2 °F 1022.2 in WSW 8.0 mph 20.9 mph 91 % 0.0 in
09:02 7.6 °F 6.2 °F 1022.2 in West 14.5 mph 19.3 mph 91 % 0.0 in
09:12 7.7 °F 6.3 °F 1022.6 in West 9.7 mph 19.3 mph 91 % 0.0 in
09:17 7.8 °F 6.3 °F 1022.6 in West 8.0 mph 19.3 mph 90 % 0.0 in
09:22 7.9 °F 6.4 °F 1022.6 in WSW 12.9 mph 19.3 mph 90 % 0.0 in
09:27 8.0 °F 6.5 °F 1022.6 in SW 12.9 mph 19.3 mph 90 % 0.0 in
09:32 8.1 °F 6.6 °F 1022.6 in WSW 9.7 mph 19.3 mph 90 % 0.0 in
09:42 8.2 °F 6.7 °F 1022.6 in SW 11.3 mph 19.3 mph 90 % 0.0 in
09:47 8.3 °F 6.6 °F 1022.6 in SW 16.1 mph 19.3 mph 89 % 0.0 in
09:52 8.4 °F 6.7 °F 1022.6 in WSW 16.1 mph 19.3 mph 89 % 0.0 in
09:57 8.6 °F 6.7 °F 1022.6 in WSW 14.5 mph 24.1 mph 88 % 0.0 in
10:07 8.8 °F 6.8 °F 1022.6 in West 8.0 mph 25.7 mph 87 % 0.0 in
10:12 9.0 °F 6.8 °F 1022.6 in WSW 9.7 mph 25.7 mph 86 % 0.0 in
10:17 9.1 °F 6.9 °F 1022.6 in West 22.5 mph 29.0 mph 86 % 0.0 in
10:22 9.2 °F 7.0 °F 1022.6 in West 8.0 mph 29.0 mph 86 % 0.0 in
10:32 9.3 °F 6.9 °F 1022.6 in WSW 14.5 mph 29.0 mph 85 % 0.0 in
10:42 9.6 °F 7.0 °F 1022.6 in WSW 9.7 mph 24.1 mph 84 % 0.0 in
10:47 9.7 °F 7.1 °F 1022.6 in West 19.3 mph 24.1 mph 84 % 0.0 in
10:52 9.7 °F 7.0 °F 1022.6 in West 11.3 mph 24.1 mph 83 % 0.0 in
11:02 9.9 °F 7.1 °F 1022.6 in WSW 14.5 mph 27.4 mph 83 % 0.0 in
11:12 10.2 °F 7.4 °F 1022.2 in WSW 8.0 mph 27.4 mph 83 % 0.0 in
11:17 10.2 °F 7.1 °F 1022.6 in WNW 11.3 mph 24.1 mph 81 % 0.0 in
11:22 10.3 °F 7.2 °F 1022.6 in WSW 12.9 mph 24.1 mph 81 % 0.0 in
11:32 10.5 °F 7.4 °F 1022.6 in WSW 14.5 mph 25.7 mph 81 % 0.0 in
11:37 10.5 °F 7.0 °F 1022.6 in WSW 16.1 mph 25.7 mph 79 % 0.0 in
11:42 10.7 °F 7.4 °F 1022.6 in West 3.2 mph 25.7 mph 80 % 0.0 in
11:47 10.8 °F 7.3 °F 1022.6 in WNW 12.9 mph 27.4 mph 79 % 0.0 in
11:52 10.9 °F 7.2 °F 1022.6 in West 9.7 mph 27.4 mph 78 % 0.0 in
11:57 11.0 °F 7.3 °F 1022.6 in West 12.9 mph 25.7 mph 78 % 0.0 in
12:07 11.1 °F 7.0 °F 1022.6 in WSW 6.4 mph 25.7 mph 76 % 0.0 in
12:12 11.3 °F 7.2 °F 1022.6 in West 14.5 mph 25.7 mph 76 % 0.0 in
12:17 11.4 °F 7.3 °F 1022.6 in West 14.5 mph 25.7 mph 76 % 0.0 in
12:22 11.4 °F 7.5 °F 1022.6 in WSW 11.3 mph 25.7 mph 77 % 0.0 in
12:27 11.3 °F 6.6 °F 1022.6 in WSW 17.7 mph 27.4 mph 73 % 0.0 in
12:42 12.0 °F 7.3 °F 1022.6 in West 16.1 mph 25.7 mph 73 % 0.0 in
12:52 12.2 °F 7.3 °F 1022.2 in SW 24.1 mph 30.6 mph 72 % 0.0 in
12:57 12.0 °F 6.7 °F 1022.2 in WNW 17.7 mph 30.6 mph 70 % 0.0 in
13:02 12.2 °F 6.7 °F 1022.2 in West 22.5 mph 30.6 mph 69 % 0.0 in
13:12 12.4 °F 6.9 °F 1022.2 in West 20.9 mph 38.6 mph 69 % 0.0 in
13:17 12.3 °F 6.3 °F 1022.2 in NW 27.4 mph 38.6 mph 67 % 0.0 in
13:22 12.2 °F 6.5 °F 1022.2 in WSW 9.7 mph 38.6 mph 68 % 0.0 in
13:32 11.9 °F 6.6 °F 1022.2 in West 9.7 mph 33.8 mph 70 % 0.0 in
13:37 11.8 °F 6.5 °F 1022.2 in WSW 12.9 mph 27.4 mph 70 % 0.0 in
13:42 11.9 °F 6.4 °F 1022.2 in West 8.0 mph 27.4 mph 69 % 0.0 in
13:47 11.9 °F 6.4 °F 1022.2 in WNW 16.1 mph 22.5 mph 69 % 0.0 in
13:57 11.7 °F 6.6 °F 1022.2 in WSW 9.7 mph 29.0 mph 71 % 0.0 in
14:02 11.7 °F 6.2 °F 1022.2 in WNW 9.7 mph 29.0 mph 69 % 0.0 in
14:12 12.2 °F 6.5 °F 1022.2 in WSW 14.5 mph 24.1 mph 68 % 0.0 in
14:17 12.3 °F 6.6 °F 1021.9 in WNW 9.7 mph 20.9 mph 68 % 0.0 in
14:22 12.3 °F 6.3 °F 1021.9 in WNW 6.4 mph 20.9 mph 67 % 0.0 in
14:27 12.7 °F 6.3 °F 1021.9 in West 20.9 mph 25.7 mph 65 % 0.0 in
14:32 12.6 °F 5.7 °F 1021.9 in SW 25.7 mph 25.7 mph 63 % 0.0 in
14:42 12.6 °F 5.3 °F 1021.9 in WSW 12.9 mph 32.2 mph 61 % 0.0 in
14:47 12.7 °F 5.6 °F 1021.9 in West 11.3 mph 33.8 mph 62 % 0.0 in
14:52 12.6 °F 5.5 °F 1021.9 in West 25.7 mph 33.8 mph 62 % 0.0 in
15:02 12.6 °F 6.0 °F 1021.9 in WNW 6.4 mph 38.6 mph 64 % 0.0 in
15:07 12.8 °F 6.2 °F 1021.9 in West 14.5 mph 29.0 mph 64 % 0.0 in
15:12 12.6 °F 5.7 °F 1021.9 in West 25.7 mph 29.0 mph 63 % 0.0 in
15:17 11.5 °F 6.2 °F 1022.2 in West 12.9 mph 45.1 mph 70 % 0.0 in
15:22 11.3 °F 6.4 °F 1021.9 in WNW 17.7 mph 45.1 mph 72 % 0.0 in
15:32 11.6 °F 6.1 °F 1021.9 in NW 9.7 mph 40.2 mph 69 % 0.0 in
15:37 11.9 °F 6.4 °F 1021.9 in WSW 14.5 mph 25.7 mph 69 % 0.0 in
15:42 11.8 °F 6.3 °F 1021.9 in West 11.3 mph 25.7 mph 69 % 0.0 in
15:47 11.8 °F 6.5 °F 1021.9 in West 8.0 mph 19.3 mph 70 % 0.0 in
15:52 12.1 °F 6.8 °F 1021.9 in WNW 8.0 mph 19.3 mph 70 % 0.0 in
15:57 12.2 °F 6.5 °F 1022.2 in West 17.7 mph 19.3 mph 68 % 0.0 in
16:02 12.2 °F 6.5 °F 1022.2 in WSW 17.7 mph 19.3 mph 68 % 0.0 in
16:07 12.2 °F 6.5 °F 1022.2 in West 12.9 mph 25.7 mph 68 % 0.0 in
16:12 12.1 °F 6.4 °F 1022.2 in West 11.3 mph 25.7 mph 68 % 0.0 in
16:17 12.1 °F 6.4 °F 1021.9 in NW 14.5 mph 25.7 mph 68 % 0.0 in
16:22 12.1 °F 6.4 °F 1021.9 in NW 4.8 mph 25.7 mph 68 % 0.0 in
16:32 11.8 °F 6.5 °F 1022.2 in West 22.5 mph 22.5 mph 70 % 0.0 in
16:37 10.9 °F 7.2 °F 1022.6 in WNW 16.1 mph 30.6 mph 78 % 0.0 in
16:42 10.4 °F 7.1 °F 1022.6 in WNW 8.0 mph 30.6 mph 80 % 0.3 in
16:47 10.3 °F 7.2 °F 1022.6 in West 3.2 mph 30.6 mph 81 % 0.3 in
16:52 10.2 °F 7.3 °F 1022.9 in NW 3.2 mph 30.6 mph 82 % 0.3 in
16:57 10.2 °F 7.1 °F 1022.6 in WNW 11.3 mph 16.1 mph 81 % 0.3 in
17:02 10.3 °F 7.0 °F 1022.9 in WNW 14.5 mph 16.1 mph 80 % 0.3 in
17:12 10.6 °F 7.1 °F 1022.9 in West 16.1 mph 29.0 mph 79 % 0.3 in
17:22 10.5 °F 7.2 °F 1022.6 in WSW 8.0 mph 29.0 mph 80 % 0.3 in
17:27 10.3 °F 7.0 °F 1022.9 in WNW 8.0 mph 19.3 mph 80 % 0.3 in
17:32 10.3 °F 7.2 °F 1022.9 in WNW 8.0 mph 19.3 mph 81 % 0.3 in
17:37 10.2 °F 7.1 °F 1022.9 in West 9.7 mph 14.5 mph 81 % 0.3 in
17:42 10.2 °F 7.1 °F 1022.9 in WNW 8.0 mph 14.5 mph 81 % 0.0 in
17:47 10.3 °F 7.2 °F 1023.2 in West 6.4 mph 12.9 mph 81 % 0.0 in
17:52 10.2 °F 7.3 °F 1022.9 in WNW 1.6 mph 12.9 mph 82 % 0.3 in
17:57 10.2 °F 7.3 °F 1023.2 in WNW 8.0 mph 12.9 mph 82 % 0.3 in
18:02 10.2 °F 7.3 °F 1023.2 in West 4.8 mph 12.9 mph 82 % 0.3 in
18:12 10.2 °F 7.3 °F 1023.2 in Calm   12.9 mph 82 % 0.3 in
18:17 10.1 °F 7.2 °F 1023.2 in WSW 4.8 mph 12.9 mph 82 % 0.3 in
18:22 10.1 °F 7.2 °F 1023.2 in WNW 6.4 mph 11.3 mph 82 % 0.3 in
18:27 10.1 °F 7.2 °F 1023.2 in West 3.2 mph 11.3 mph 82 % 0.3 in
18:32 10.0 °F 7.1 °F 1023.2 in West 3.2 mph 9.7 mph 82 % 0.3 in
18:37 9.9 °F 7.0 °F 1023.6 in West 8.0 mph 9.7 mph 82 % 0.3 in
18:42 9.9 °F 7.1 °F 1023.6 in WNW 1.6 mph 12.9 mph 83 % 0.3 in
18:47 9.9 °F 7.1 °F 1023.6 in WSW 6.4 mph 11.3 mph 83 % 0.3 in
18:52 9.9 °F 7.1 °F 1023.6 in West 8.0 mph 11.3 mph 83 % 0.0 in
19:02 9.8 °F 7.1 °F 1023.6 in West 6.4 mph 17.7 mph 83 % 0.0 in
19:07 9.8 °F 7.1 °F 1023.9 in WSW 4.8 mph 12.9 mph 83 % 0.0 in
19:12 9.8 °F 7.1 °F 1023.9 in WSW 4.8 mph 12.9 mph 83 % 0.0 in
19:17 9.8 °F 7.1 °F 1023.9 in Calm   11.3 mph 83 % 0.0 in
19:22 9.8 °F 7.1 °F 1023.9 in WSW 1.6 mph 11.3 mph 83 % 0.0 in
19:32 9.6 °F 7.0 °F 1023.9 in SW 1.6 mph 8.0 mph 84 % 0.0 in
19:37 9.6 °F 7.0 °F 1024.3 in WSW 3.2 mph 6.4 mph 84 % 0.0 in
19:42 9.6 °F 7.0 °F 1024.3 in WSW 3.2 mph 6.4 mph 84 % 0.0 in
19:47 9.5 °F 6.9 °F 1024.3 in West 6.4 mph 11.3 mph 84 % 0.0 in
19:52 9.6 °F 6.9 °F 1024.3 in WSW 8.0 mph 11.3 mph 83 % 0.0 in
19:57 9.6 °F 6.9 °F 1024.3 in WSW 6.4 mph 12.9 mph 83 % 0.0 in
20:02 9.6 °F 6.9 °F 1024.6 in West 3.2 mph 12.9 mph 83 % 0.0 in
20:12 9.4 °F 6.7 °F 1024.6 in WSW 4.8 mph 12.9 mph 83 % 0.0 in
20:17 9.4 °F 6.7 °F 1024.6 in WSW 4.8 mph 11.3 mph 83 % 0.0 in
20:22 9.4 °F 6.7 °F 1024.6 in West 4.8 mph 11.3 mph 83 % 0.0 in
20:32 9.3 °F 6.7 °F 1024.6 in West 4.8 mph 11.3 mph 84 % 0.0 in
20:42 9.2 °F 6.6 °F 1024.6 in WNW 3.2 mph 12.9 mph 84 % 0.0 in
20:47 9.2 °F 6.6 °F 1024.6 in SW 6.4 mph 11.3 mph 84 % 0.0 in
20:52 9.1 °F 6.7 °F 1024.6 in WNW 6.4 mph 11.3 mph 85 % 0.0 in
21:02 9.2 °F 6.6 °F 1024.6 in West 8.0 mph 12.9 mph 84 % 0.0 in
21:07 9.3 °F 6.9 °F 1024.6 in West 9.7 mph 12.9 mph 85 % 0.0 in
21:12 9.4 °F 6.8 °F 1024.6 in WSW 8.0 mph 12.9 mph 84 % 0.0 in
21:22 9.4 °F 6.8 °F 1024.6 in West 9.7 mph 19.3 mph 84 % 0.0 in
21:27 9.4 °F 6.8 °F 1024.9 in WSW 11.3 mph 16.1 mph 84 % 0.0 in
21:32 9.3 °F 6.9 °F 1024.9 in SW 11.3 mph 16.1 mph 85 % 0.0 in
21:37 9.4 °F 7.0 °F 1024.9 in West 6.4 mph 16.1 mph 85 % 0.0 in
21:42 9.3 °F 7.1 °F 1024.9 in WSW 16.1 mph 16.1 mph 86 % 0.0 in
21:47 9.3 °F 7.2 °F 1024.9 in West 4.8 mph 16.1 mph 87 % 0.0 in
21:52 9.3 °F 7.2 °F 1024.9 in West 1.6 mph 16.1 mph 87 % 0.0 in
21:57 9.3 °F 7.1 °F 1024.9 in SW 4.8 mph 16.1 mph 86 % 0.0 in
22:02 9.3 °F 7.2 °F 1024.9 in SW 6.4 mph 16.1 mph 87 % 0.0 in
22:07 9.3 °F 7.2 °F 1024.9 in WSW 11.3 mph 12.9 mph 87 % 0.0 in
22:12 9.3 °F 7.2 °F 1024.9 in West 3.2 mph 12.9 mph 87 % 0.0 in
22:17 9.3 °F 7.2 °F 1024.9 in WSW 3.2 mph 12.9 mph 87 % 0.0 in
22:22 9.4 °F 7.3 °F 1024.9 in WSW 3.2 mph 12.9 mph 87 % 0.0 in
22:32 9.4 °F 7.2 °F 1024.9 in WSW 6.4 mph 11.3 mph 86 % 0.0 in
22:37 9.5 °F 7.3 °F 1024.9 in WSW 8.0 mph 11.3 mph 86 % 0.0 in
22:42 9.6 °F 7.4 °F 1024.9 in WSW 4.8 mph 11.3 mph 86 % 0.0 in
22:47 9.6 °F 7.4 °F 1024.9 in WSW 8.0 mph 12.9 mph 86 % 0.0 in
22:52 9.6 °F 7.4 °F 1024.9 in West 3.2 mph 12.9 mph 86 % 0.0 in
22:57 9.6 °F 7.4 °F 1024.9 in WSW 4.8 mph 12.9 mph 86 % 0.0 in
23:02 9.6 °F 7.4 °F 1024.9 in WSW 3.2 mph 12.9 mph 86 % 0.0 in
23:12 9.6 °F 7.4 °F 1024.9 in WSW 6.4 mph 12.9 mph 86 % 0.0 in
23:17 9.6 °F 7.4 °F 1024.9 in WSW 9.7 mph 11.3 mph 86 % 0.0 in
23:22 9.6 °F 7.4 °F 1024.9 in West 6.4 mph 11.3 mph 86 % 0.0 in
23:32 9.7 °F 7.5 °F 1024.9 in SW 9.7 mph 16.1 mph 86 % 0.0 in
23:37 9.8 °F 7.4 °F 1024.9 in West 9.7 mph 19.3 mph 85 % 0.0 in
23:42 9.8 °F 7.4 °F 1024.9 in SW 4.8 mph 19.3 mph 85 % 0.0 in
23:47 9.8 °F 7.4 °F 1024.9 in WSW 9.7 mph 16.1 mph 85 % 0.0 in
23:57 9.8 °F 7.4 °F 1025.3 in SW 8.0 mph 17.7 mph 85 % 0.0 in
Meteo18
Compliments of Weather Underground - 4 mb

Script developed by  Jim McMurry - jmcmurry@mwt.net Adapted for the template by  Wim van der Kuil - Leuven-Template.eu

You find our weather info also at:

European Weather Network

Weather Underground

Equipment we use:

Weather-station
Davis Vue

Weather-program
Meteobridge

Weather-server
Raspberry PI 2 B+

Provider
1 and 1

Davis Vue

Meteobridge

Raspberry PI 2 B+

1 and 1